createdAt,value
2023-01-28T00:02:09.954Z,4.80
2023-01-28T00:04:37.302Z,4.43
2023-01-28T00:07:04.433Z,4.40
2023-01-28T00:09:31.718Z,4.53
2023-01-28T00:11:59.407Z,5.03
2023-01-28T00:14:26.630Z,4.68
2023-01-28T00:16:54.652Z,4.70
2023-01-28T00:19:22.724Z,4.70
2023-01-28T00:21:49.956Z,4.88
2023-01-28T00:24:17.334Z,5.22
2023-01-28T00:26:44.707Z,5.10
2023-01-28T00:29:11.899Z,10.77
2023-01-28T00:31:41.468Z,9.90
2023-01-28T00:34:10.023Z,5.97
2023-01-28T00:36:39.768Z,6.28
2023-01-28T00:39:07.206Z,5.90
2023-01-28T00:41:34.845Z,5.70
2023-01-28T00:44:02.120Z,6.18
2023-01-28T00:46:30.950Z,5.72
2023-01-28T00:48:58.353Z,6.10
2023-01-28T00:51:26.315Z,6.10
2023-01-28T00:53:54.560Z,6.82
2023-01-28T00:56:22.268Z,5.70
2023-01-28T00:58:50.190Z,6.05
2023-01-28T01:01:26.170Z,7.05
2023-01-28T01:04:03.228Z,5.72
2023-01-28T01:06:34.262Z,5.85
2023-01-28T01:09:02.971Z,6.43
2023-01-28T01:11:30.230Z,6.43
2023-01-28T01:13:59.550Z,7.20
2023-01-28T01:16:30.075Z,6.63
2023-01-28T01:18:58.051Z,6.30
2023-01-28T01:21:27.715Z,7.00
2023-01-28T01:23:55.540Z,7.32
2023-01-28T01:26:28.091Z,7.25
2023-01-28T01:28:58.063Z,6.20
2023-01-28T01:31:25.412Z,6.70
2023-01-28T01:33:54.033Z,6.78
2023-01-28T01:36:22.484Z,6.18
2023-01-28T01:38:55.522Z,6.20
2023-01-28T01:41:33.371Z,6.50
2023-01-28T01:44:03.306Z,6.32
2023-01-28T01:46:37.018Z,5.55
2023-01-28T01:49:17.869Z,6.45
2023-01-28T01:51:47.249Z,6.20
2023-01-28T01:54:15.480Z,6.07
2023-01-28T01:56:45.365Z,5.57
2023-01-28T01:59:18.427Z,6.35
2023-01-28T02:01:46.107Z,6.25
2023-01-28T02:04:22.880Z,6.18
2023-01-28T02:06:50.132Z,5.63
2023-01-28T02:09:29.964Z,5.68
2023-01-28T02:12:11.927Z,5.93
2023-01-28T02:14:47.306Z,5.43
2023-01-28T02:17:16.155Z,5.20
2023-01-28T02:19:50.516Z,5.43
2023-01-28T02:22:55.933Z,5.82
2023-01-28T02:25:34.900Z,5.65
2023-01-28T02:28:09.563Z,5.00
2023-01-28T02:30:45.777Z,5.03
2023-01-28T02:33:38.846Z,5.53
2023-01-28T02:36:18.550Z,4.90
2023-01-28T02:38:52.459Z,4.82
2023-01-28T02:41:26.774Z,5.18
2023-01-28T02:43:54.749Z,4.50
2023-01-28T02:46:54.761Z,5.55
2023-01-28T02:49:41.157Z,5.30
2023-01-28T02:52:51.860Z,5.05
2023-01-28T02:55:56.130Z,4.82
2023-01-28T02:58:36.511Z,5.00
2023-01-28T03:01:21.285Z,5.05
2023-01-28T03:04:27.673Z,4.75
2023-01-28T03:07:03.426Z,5.28
2023-01-28T03:09:31.409Z,4.68
2023-01-28T03:12:40.114Z,5.38
2023-01-28T03:15:34.036Z,4.78
2023-01-28T03:21:39.924Z,4.90
2023-01-28T03:24:32.727Z,4.93
2023-01-28T03:27:32.141Z,4.88
2023-01-28T03:30:32.274Z,4.78
2023-01-28T03:33:24.339Z,4.82
2023-01-28T03:36:10.404Z,4.88
2023-01-28T03:38:42.890Z,5.20
2023-01-28T03:41:13.225Z,5.30
2023-01-28T03:43:42.353Z,5.10
2023-01-28T03:46:09.645Z,5.20
2023-01-28T03:48:37.363Z,4.82
2023-01-28T03:51:07.037Z,4.63
2023-01-28T03:53:34.396Z,4.93
2023-01-28T03:56:01.633Z,5.18
2023-01-28T03:58:46.880Z,5.07
2023-01-28T04:01:15.857Z,4.53
2023-01-28T04:03:43.492Z,5.10
2023-01-28T04:06:15.321Z,4.60
2023-01-28T04:09:17.780Z,5.45
2023-01-28T04:11:56.346Z,5.45
2023-01-28T04:14:32.009Z,5.18
2023-01-28T04:17:13.141Z,5.07
2023-01-28T04:19:40.701Z,5.28
2023-01-28T04:22:11.771Z,4.95
2023-01-28T04:24:40.799Z,5.10
2023-01-28T04:27:08.954Z,4.72
2023-01-28T04:29:36.171Z,5.18
2023-01-28T04:32:23.288Z,5.00
2023-01-28T04:35:07.777Z,4.80
2023-01-28T04:37:46.117Z,5.07
2023-01-28T04:40:33.700Z,4.90
2023-01-28T04:43:10.482Z,5.53
2023-01-28T04:45:51.433Z,5.60
2023-01-28T04:48:31.977Z,5.13
2023-01-28T04:51:19.424Z,5.70
2023-01-28T04:54:19.029Z,6.07
2023-01-28T04:56:46.466Z,5.43
2023-01-28T04:59:14.137Z,5.45
2023-01-28T05:01:41.631Z,6.00
2023-01-28T05:04:10.235Z,5.78
2023-01-28T05:06:39.707Z,6.22
2023-01-28T05:09:29.679Z,6.10
2023-01-28T05:11:56.945Z,6.13
2023-01-28T05:14:24.428Z,6.30
2023-01-28T05:16:59.482Z,6.50
2023-01-28T05:19:26.787Z,6.50
2023-01-28T05:21:54.390Z,6.07
2023-01-28T05:24:42.188Z,6.55
2023-01-28T05:27:09.775Z,6.72
2023-01-28T05:29:37.205Z,6.63
2023-01-28T05:32:04.757Z,6.65
2023-01-28T05:34:32.487Z,6.28
2023-01-28T05:37:04.762Z,5.97
2023-01-28T05:39:35.093Z,7.05
2023-01-28T05:42:02.592Z,6.72
2023-01-28T05:44:30.581Z,6.70
2023-01-28T05:47:24.340Z,7.28
2023-01-28T05:50:13.564Z,6.43
2023-01-28T05:52:48.040Z,6.80
2023-01-28T05:55:22.942Z,7.10
2023-01-28T05:57:50.890Z,7.22
2023-01-28T06:00:21.640Z,6.90
2023-01-28T06:02:48.889Z,6.90
2023-01-28T06:05:16.399Z,7.40
2023-01-28T06:07:48.529Z,6.30
2023-01-28T06:10:19.797Z,7.18
2023-01-28T06:12:47.900Z,6.80
2023-01-28T06:15:34.071Z,7.10
2023-01-28T06:18:05.168Z,6.57
2023-01-28T06:20:34.448Z,6.97
2023-01-28T06:23:02.083Z,7.43
2023-01-28T06:25:29.749Z,7.93
2023-01-28T06:28:00.943Z,7.15
2023-01-28T06:30:28.136Z,6.90
2023-01-28T06:32:56.443Z,7.10
2023-01-28T06:35:24.633Z,7.63
2023-01-28T06:37:52.844Z,7.35
2023-01-28T06:40:20.845Z,7.78
2023-01-28T06:42:48.067Z,8.32
2023-01-28T06:45:15.633Z,7.10
2023-01-28T06:47:42.911Z,7.22
2023-01-28T06:50:10.930Z,8.27
2023-01-28T06:52:38.216Z,7.70
2023-01-28T06:55:05.916Z,9.23
2023-01-28T06:57:33.108Z,8.43
2023-01-28T07:00:00.536Z,8.05
2023-01-28T07:02:27.894Z,8.32
2023-01-28T07:04:55.151Z,8.00
2023-01-28T07:07:22.207Z,8.95
2023-01-28T07:09:49.379Z,8.52
2023-01-28T07:12:16.871Z,9.57
2023-01-28T07:14:44.181Z,8.65
2023-01-28T07:17:12.064Z,8.82
2023-01-28T07:19:39.891Z,8.77
2023-01-28T07:22:07.327Z,8.98
2023-01-28T07:24:35.315Z,8.85
2023-01-28T07:27:05.093Z,8.27
2023-01-28T07:29:32.333Z,8.95
2023-01-28T07:31:59.655Z,8.48
2023-01-28T07:34:27.130Z,8.82
2023-01-28T07:36:57.417Z,8.65
2023-01-28T07:39:25.086Z,8.75
2023-01-28T07:41:53.008Z,10.95
2023-01-28T07:44:39.851Z,9.05
2023-01-28T07:47:07.845Z,8.55
2023-01-28T07:49:35.207Z,8.73
2023-01-28T07:52:02.889Z,8.40
2023-01-28T07:54:30.357Z,8.52
2023-01-28T07:56:58.211Z,9.18
2023-01-28T07:59:25.542Z,8.30
2023-01-28T08:01:55.183Z,9.55
2023-01-28T08:04:22.826Z,9.40
2023-01-28T08:06:52.580Z,9.15
2023-01-28T08:09:20.189Z,8.63
2023-01-28T08:11:47.498Z,8.85
2023-01-28T08:14:14.712Z,9.18
2023-01-28T08:16:42.060Z,9.77
2023-01-28T08:19:09.410Z,9.38
2023-01-28T08:21:36.571Z,9.88
2023-01-28T08:24:03.894Z,9.52
2023-01-28T08:26:31.204Z,9.27
2023-01-28T08:28:58.417Z,9.13
2023-01-28T08:31:25.676Z,8.60
2023-01-28T08:33:53.023Z,9.90
2023-01-28T08:36:20.785Z,8.80
2023-01-28T08:38:51.754Z,9.55
2023-01-28T08:41:19.009Z,8.98
2023-01-28T08:43:50.323Z,9.02
2023-01-28T08:46:18.006Z,8.85
2023-01-28T08:48:45.178Z,8.52
2023-01-28T08:51:12.457Z,8.45
2023-01-28T08:53:39.932Z,9.05
2023-01-28T08:56:07.404Z,9.98
2023-01-28T08:58:34.785Z,10.68
2023-01-28T09:01:07.044Z,14.15
2023-01-28T09:03:36.351Z,10.18
2023-01-28T09:06:05.425Z,10.75
2023-01-28T09:08:32.738Z,9.25
2023-01-28T09:11:00.601Z,9.73
2023-01-28T09:13:29.115Z,10.30
2023-01-28T09:15:56.897Z,9.85
2023-01-28T09:18:24.317Z,9.23
2023-01-28T09:20:51.830Z,9.95
2023-01-28T09:23:19.197Z,10.52
2023-01-28T09:25:46.478Z,10.25
2023-01-28T09:28:13.966Z,9.95
2023-01-28T09:30:41.352Z,10.13
2023-01-28T09:33:09.579Z,10.88
2023-01-28T09:35:37.243Z,10.35
2023-01-28T09:38:05.341Z,10.00
2023-01-28T09:40:41.609Z,9.90
2023-01-28T09:43:30.225Z,9.82
2023-01-28T09:46:00.613Z,10.18
2023-01-28T09:48:34.065Z,9.60
2023-01-28T09:51:02.127Z,10.43
2023-01-28T09:53:34.191Z,9.23
2023-01-28T09:56:14.854Z,10.05
2023-01-28T09:58:43.487Z,9.20
2023-01-28T10:02:02.493Z,9.93
2023-01-28T10:04:38.232Z,9.80
2023-01-28T10:07:42.382Z,10.00
2023-01-28T10:10:47.819Z,9.75
2023-01-28T10:13:25.594Z,9.68
2023-01-28T10:16:06.592Z,9.75
2023-01-28T10:18:40.244Z,9.52
2023-01-28T10:21:31.440Z,8.75
2023-01-28T10:24:04.741Z,9.00
2023-01-28T10:26:38.975Z,9.38
2023-01-28T10:29:18.059Z,8.30
2023-01-28T10:32:19.034Z,8.82
2023-01-28T10:34:46.257Z,9.30
2023-01-28T10:37:16.386Z,7.97
2023-01-28T10:39:44.850Z,9.20
2023-01-28T10:42:33.521Z,9.07
2023-01-28T10:45:26.462Z,8.50
2023-01-28T10:48:03.739Z,9.85
2023-01-28T10:50:32.475Z,8.40
2023-01-28T10:53:05.627Z,8.48
2023-01-28T10:55:49.837Z,8.93
2023-01-28T10:58:24.820Z,8.70
2023-01-28T11:01:00.078Z,8.60
2023-01-28T11:03:27.870Z,7.53
2023-01-28T11:05:56.889Z,6.93
2023-01-28T11:08:27.397Z,9.95
2023-01-28T11:10:56.178Z,7.07
2023-01-28T11:13:26.427Z,7.55
2023-01-28T11:15:54.588Z,6.65
2023-01-28T11:18:27.970Z,6.97
2023-01-28T11:20:59.225Z,6.82
2023-01-28T11:23:42.378Z,6.60
2023-01-28T11:26:18.255Z,5.40
2023-01-28T11:28:47.174Z,6.10
2023-01-28T11:31:17.517Z,5.75
2023-01-28T11:33:57.913Z,5.68
2023-01-28T11:36:33.758Z,5.25
2023-01-28T11:39:05.868Z,5.05
2023-01-28T11:41:39.210Z,5.40
2023-01-28T11:44:14.980Z,5.65
2023-01-28T11:46:48.180Z,5.63
2023-01-28T11:49:28.408Z,5.32
2023-01-28T11:52:22.805Z,5.95
2023-01-28T11:55:22.085Z,5.80
2023-01-28T11:58:47.555Z,5.97
2023-01-28T12:01:48.206Z,5.50
2023-01-28T12:04:23.529Z,5.93
2023-01-28T12:07:22.866Z,5.47
2023-01-28T12:10:31.649Z,6.05
2023-01-28T12:13:12.655Z,6.10
2023-01-28T12:16:12.663Z,5.72
2023-01-28T12:19:09.751Z,6.35
2023-01-28T12:21:39.955Z,5.97
2023-01-28T12:24:35.507Z,5.68
2023-01-28T12:27:23.022Z,6.53
2023-01-28T12:29:59.515Z,6.57
2023-01-28T12:32:43.848Z,6.07
2023-01-28T12:35:35.779Z,6.65
2023-01-28T12:38:23.272Z,6.80
2023-01-28T12:40:59.847Z,6.70
2023-01-28T12:43:59.148Z,6.63
2023-01-28T12:46:47.879Z,7.43
2023-01-28T12:49:23.444Z,6.95
2023-01-28T12:51:58.048Z,7.32
2023-01-28T12:54:37.190Z,6.78
2023-01-28T12:57:04.942Z,7.68
2023-01-28T12:59:53.378Z,9.30
2023-01-28T13:02:43.815Z,12.45
2023-01-28T13:05:31.576Z,8.30
2023-01-28T13:08:08.900Z,9.57
2023-01-28T13:10:42.926Z,7.35
2023-01-28T13:13:37.257Z,10.30
2023-01-28T13:16:07.910Z,8.80
2023-01-28T13:18:41.378Z,9.05
2023-01-28T13:23:43.839Z,8.30
2023-01-28T13:26:22.411Z,9.48
2023-01-28T13:28:52.933Z,10.85
2023-01-28T13:31:24.014Z,9.63
2023-01-28T13:33:54.487Z,9.05
2023-01-28T13:36:26.137Z,9.10
2023-01-28T13:39:05.396Z,9.95
2023-01-28T13:41:43.258Z,9.55
2023-01-28T13:44:26.968Z,9.07
2023-01-28T13:49:50.370Z,9.73
2023-01-28T13:52:24.730Z,10.30
2023-01-28T13:55:26.709Z,9.93
2023-01-28T13:58:34.996Z,10.15
2023-01-28T14:01:24.535Z,9.77
2023-01-28T14:04:16.267Z,9.60
2023-01-28T14:07:08.131Z,10.55
2023-01-28T14:10:08.912Z,10.60
2023-01-28T14:12:54.876Z,9.93
2023-01-28T14:15:35.196Z,9.52
2023-01-28T14:18:12.469Z,9.00
2023-01-28T14:20:45.656Z,9.40
2023-01-28T14:23:22.658Z,9.98
2023-01-28T14:25:59.572Z,10.25
2023-01-28T14:28:30.309Z,8.82
2023-01-28T14:31:06.751Z,9.77
2023-01-28T14:33:35.848Z,9.73
2023-01-28T14:36:03.457Z,9.93
2023-01-28T14:38:37.984Z,11.93
2023-01-28T14:41:06.256Z,10.40
2023-01-28T14:43:33.657Z,11.00
2023-01-28T14:46:40.873Z,10.35
2023-01-28T14:49:47.004Z,10.32
2023-01-28T14:52:49.079Z,9.80
2023-01-28T14:55:48.920Z,9.88
2023-01-28T14:58:22.355Z,9.88
2023-01-28T15:03:30.286Z,8.82
2023-01-28T15:06:07.900Z,9.38
2023-01-28T15:08:36.250Z,9.88
2023-01-28T15:11:06.380Z,9.45
2023-01-28T15:13:39.300Z,8.68
2023-01-28T15:16:07.226Z,9.43
2023-01-28T15:18:37.177Z,9.00
2023-01-28T15:21:05.226Z,8.52
2023-01-28T15:23:38.160Z,9.80
2023-01-28T15:26:15.316Z,9.48
2023-01-28T15:28:44.804Z,8.80
2023-01-28T15:31:29.363Z,8.70
2023-01-28T15:34:05.388Z,9.50
2023-01-28T15:36:32.915Z,8.85
2023-01-28T15:39:00.167Z,9.57
2023-01-28T15:41:36.800Z,8.77
2023-01-28T15:44:04.403Z,9.18
2023-01-28T15:46:32.331Z,9.23
2023-01-28T15:49:03.103Z,8.93
2023-01-28T15:51:32.695Z,8.55
2023-01-28T15:54:07.484Z,8.88
2023-01-28T15:56:35.732Z,8.38
2023-01-28T15:59:16.827Z,9.27
2023-01-28T16:01:44.650Z,9.60
2023-01-28T16:04:30.128Z,8.73
2023-01-28T16:06:59.499Z,9.20
2023-01-28T16:09:34.733Z,8.25
2023-01-28T16:12:11.944Z,8.35
2023-01-28T16:15:01.103Z,8.75
2023-01-28T16:17:48.048Z,8.60
2023-01-28T16:20:23.291Z,8.15
2023-01-28T16:22:52.113Z,8.50
2023-01-28T16:25:22.275Z,8.73
2023-01-28T16:27:49.640Z,8.45
2023-01-28T16:30:17.677Z,8.00
2023-01-28T16:32:47.002Z,8.15
2023-01-28T16:35:31.353Z,8.60
2023-01-28T16:38:05.394Z,8.02
2023-01-28T16:40:32.789Z,8.18
2023-01-28T16:43:00.101Z,8.30
2023-01-28T16:45:29.805Z,8.43
2023-01-28T16:47:57.197Z,8.10
2023-01-28T16:50:24.566Z,8.85
2023-01-28T16:52:55.539Z,8.68
2023-01-28T16:55:23.665Z,7.68
2023-01-28T16:57:53.423Z,8.55
2023-01-28T17:00:23.596Z,8.68
2023-01-28T17:02:51.724Z,8.98
2023-01-28T17:05:20.333Z,7.97
2023-01-28T17:07:54.539Z,7.35
2023-01-28T17:10:22.016Z,6.95
2023-01-28T17:12:49.520Z,6.80
2023-01-28T17:15:17.149Z,6.68
2023-01-28T17:17:48.569Z,6.68
2023-01-28T17:20:15.999Z,6.65
2023-01-28T17:22:43.235Z,6.65
2023-01-28T17:25:11.316Z,6.93
2023-01-28T17:27:38.724Z,6.55
2023-01-28T17:30:06.663Z,6.40
2023-01-28T17:32:34.542Z,6.35
2023-01-28T17:35:02.051Z,6.25
2023-01-28T17:37:29.285Z,6.65
2023-01-28T17:39:58.463Z,6.68
2023-01-28T17:42:27.455Z,6.65
2023-01-28T17:44:55.425Z,7.25
2023-01-28T17:47:23.010Z,7.50
2023-01-28T17:49:50.339Z,7.35
2023-01-28T17:52:17.583Z,7.63
2023-01-28T17:54:44.765Z,7.60
2023-01-28T17:57:12.127Z,6.85
2023-01-28T17:59:39.418Z,7.55
2023-01-28T18:02:07.369Z,7.18
2023-01-28T18:04:42.478Z,7.38
2023-01-28T18:07:13.493Z,7.53
2023-01-28T18:09:44.058Z,7.15
2023-01-28T18:12:14.020Z,6.82
2023-01-28T18:14:42.575Z,7.95
2023-01-28T18:17:11.453Z,6.90
2023-01-28T18:19:39.000Z,7.70
2023-01-28T18:22:06.915Z,7.53
2023-01-28T18:24:34.263Z,7.10
2023-01-28T18:27:03.836Z,6.72
2023-01-28T18:29:32.753Z,7.35
2023-01-28T18:32:00.200Z,7.50
2023-01-28T18:34:29.688Z,7.45
2023-01-28T18:36:58.223Z,7.55
2023-01-28T18:39:30.590Z,6.85
2023-01-28T18:42:01.833Z,7.47
2023-01-28T18:44:30.889Z,8.25
2023-01-28T18:46:58.824Z,8.30
2023-01-28T18:49:26.106Z,9.18
2023-01-28T18:51:53.686Z,8.38
2023-01-28T18:54:21.502Z,7.70
2023-01-28T18:56:48.963Z,7.50
2023-01-28T18:59:16.305Z,8.90
2023-01-28T19:01:44.034Z,8.27
2023-01-28T19:04:12.007Z,8.77
2023-01-28T19:06:39.265Z,9.25
2023-01-28T19:09:07.597Z,9.15
2023-01-28T19:11:35.476Z,7.97
2023-01-28T19:14:03.094Z,8.60
2023-01-28T19:16:30.835Z,8.93
2023-01-28T19:19:00.796Z,8.77
2023-01-28T19:21:29.833Z,8.23
2023-01-28T19:24:15.526Z,8.10
2023-01-28T19:26:44.969Z,9.38
2023-01-28T19:29:15.692Z,8.23
2023-01-28T19:31:44.822Z,8.25
2023-01-28T19:34:13.365Z,8.52
2023-01-28T19:36:41.228Z,7.78
2023-01-28T19:39:09.849Z,8.95
2023-01-28T19:41:38.080Z,9.13
2023-01-28T19:44:06.681Z,7.97
2023-01-28T19:46:36.424Z,8.35
2023-01-28T19:49:06.485Z,10.35
2023-01-28T19:51:33.876Z,8.20
2023-01-28T19:54:01.178Z,7.60
2023-01-28T19:56:30.094Z,8.30
2023-01-28T19:58:57.514Z,8.65
2023-01-28T20:01:29.899Z,8.98
2023-01-28T20:04:00.396Z,8.77
2023-01-28T20:06:30.001Z,9.18
2023-01-28T20:09:00.745Z,7.85
2023-01-28T20:11:28.068Z,8.23
2023-01-28T20:13:56.775Z,7.97
2023-01-28T20:16:29.639Z,8.75
2023-01-28T20:18:59.462Z,8.60
2023-01-28T20:21:27.497Z,7.90
2023-01-28T20:23:56.949Z,7.60
2023-01-28T20:26:28.778Z,7.40
2023-01-28T20:28:56.082Z,7.85
2023-01-28T20:31:23.567Z,8.30
2023-01-28T20:33:50.940Z,8.27
2023-01-28T20:36:18.201Z,8.45
2023-01-28T20:38:47.518Z,8.50
2023-01-28T20:41:22.936Z,8.73
2023-01-28T20:43:51.607Z,7.95
2023-01-28T20:46:21.291Z,8.15
2023-01-28T20:48:49.273Z,7.07
2023-01-28T20:51:22.814Z,7.95
2023-01-28T20:56:20.159Z,6.20
2023-01-28T20:58:49.763Z,6.53
2023-01-28T21:01:22.379Z,6.65
2023-01-28T21:03:50.254Z,6.85
2023-01-28T21:06:17.731Z,7.22
2023-01-28T21:08:45.462Z,7.53
2023-01-28T21:11:14.164Z,7.40
2023-01-28T21:13:41.679Z,7.88
2023-01-28T21:16:09.388Z,8.65
2023-01-28T21:18:37.737Z,8.63
2023-01-28T21:21:08.464Z,8.40
2023-01-28T21:23:35.933Z,10.93
2023-01-28T21:26:05.183Z,10.48
2023-01-28T21:28:33.297Z,10.52
2023-01-28T21:31:14.310Z,8.10
2023-01-28T21:33:41.681Z,7.55
2023-01-28T21:36:14.990Z,7.75
2023-01-28T21:38:42.695Z,11.50
2023-01-28T21:41:10.474Z,9.75
2023-01-28T21:43:38.726Z,8.40
2023-01-28T21:46:05.897Z,7.60
2023-01-28T21:48:33.376Z,6.50
2023-01-28T21:51:26.975Z,6.55
2023-01-28T21:53:54.531Z,6.03
2023-01-28T21:56:21.896Z,6.82
2023-01-28T21:59:07.652Z,6.82
2023-01-28T22:01:35.706Z,6.40
2023-01-28T22:04:03.303Z,6.30
2023-01-28T22:06:30.675Z,6.55
2023-01-28T22:09:01.298Z,5.85
2023-01-28T22:11:28.884Z,6.30
2023-01-28T22:13:56.149Z,6.00
2023-01-28T22:16:23.308Z,6.45
2023-01-28T22:18:50.515Z,7.10
2023-01-28T22:21:17.749Z,7.13
2023-01-28T22:23:44.978Z,6.55
2023-01-28T22:26:12.211Z,7.07
2023-01-28T22:28:39.384Z,6.97
2023-01-28T22:31:14.202Z,6.47
2023-01-28T22:33:42.773Z,6.78
2023-01-28T22:36:13.792Z,7.18
2023-01-28T22:38:43.573Z,7.13
2023-01-28T22:41:14.135Z,7.50
2023-01-28T22:43:42.459Z,7.35
2023-01-28T22:46:09.871Z,7.93
2023-01-28T22:48:38.425Z,7.70
2023-01-28T22:51:08.580Z,7.75
2023-01-28T22:53:35.804Z,7.95
2023-01-28T22:56:03.929Z,8.57
2023-01-28T22:58:31.881Z,8.43
2023-01-28T23:01:00.255Z,8.38
2023-01-28T23:03:28.004Z,9.25
2023-01-28T23:06:04.887Z,7.78
2023-01-28T23:08:33.729Z,8.30
2023-01-28T23:11:02.873Z,8.65
2023-01-28T23:13:54.028Z,8.13
2023-01-28T23:16:39.705Z,8.55
2023-01-28T23:19:27.542Z,8.45
2023-01-28T23:22:13.279Z,7.97
2023-01-28T23:24:40.538Z,8.23
2023-01-28T23:27:07.989Z,8.32
2023-01-28T23:29:35.683Z,8.20
2023-01-28T23:32:10.387Z,8.70
2023-01-28T23:34:40.950Z,8.40
2023-01-28T23:37:10.568Z,8.75
2023-01-28T23:39:41.383Z,8.32
2023-01-28T23:42:19.253Z,8.35
2023-01-28T23:44:46.952Z,8.40
2023-01-28T23:47:15.143Z,9.35
2023-01-28T23:49:42.322Z,9.50
2023-01-28T23:52:10.744Z,9.10
2023-01-28T23:54:38.433Z,9.13
2023-01-28T23:57:05.875Z,8.50
2023-01-28T23:59:33.205Z,9.23
